sensor_id;sensor_type;location;lat;lon;timestamp;P1;durP1;ratioP1;P2;durP2;ratioP2
23270;SDS011;11804;51.118;17.058;2023-04-25T00:01:29;1.13;;;0.90;;
23270;SDS011;11804;51.118;17.058;2023-04-25T00:03:59;2.63;;;1.40;;
23270;SDS011;11804;51.118;17.058;2023-04-25T00:06:26;1.70;;;1.23;;
23270;SDS011;11804;51.118;17.058;2023-04-25T00:08:55;5.77;;;1.30;;
23270;SDS011;11804;51.118;17.058;2023-04-25T00:11:23;1.10;;;0.90;;
23270;SDS011;11804;51.118;17.058;2023-04-25T00:13:51;1.13;;;0.90;;
23270;SDS011;11804;51.118;17.058;2023-04-25T00:16:20;1.30;;;0.80;;
23270;SDS011;11804;51.118;17.058;2023-04-25T00:18:49;1.00;;;0.90;;
23270;SDS011;11804;51.118;17.058;2023-04-25T00:21:18;1.93;;;1.20;;
23270;SDS011;11804;51.118;17.058;2023-04-25T00:23:48;1.23;;;0.73;;
23270;SDS011;11804;51.118;17.058;2023-04-25T00:26:16;1.23;;;0.77;;
23270;SDS011;11804;51.118;17.058;2023-04-25T00:28:44;2.37;;;1.10;;
23270;SDS011;11804;51.118;17.058;2023-04-25T00:31:12;1.03;;;0.80;;
23270;SDS011;11804;51.118;17.058;2023-04-25T00:33:39;1.07;;;0.70;;
23270;SDS011;11804;51.118;17.058;2023-04-25T00:36:07;1.20;;;0.93;;
23270;SDS011;11804;51.118;17.058;2023-04-25T00:38:36;1.60;;;0.77;;
23270;SDS011;11804;51.118;17.058;2023-04-25T00:41:05;1.43;;;0.90;;
23270;SDS011;11804;51.118;17.058;2023-04-25T00:43:33;1.07;;;0.90;;
23270;SDS011;11804;51.118;17.058;2023-04-25T00:46:04;2.30;;;1.03;;
23270;SDS011;11804;51.118;17.058;2023-04-25T00:48:31;1.50;;;1.00;;
23270;SDS011;11804;51.118;17.058;2023-04-25T00:50:59;1.57;;;0.87;;
23270;SDS011;11804;51.118;17.058;2023-04-25T00:53:27;1.13;;;0.83;;
23270;SDS011;11804;51.118;17.058;2023-04-25T00:55:59;1.17;;;0.90;;
23270;SDS011;11804;51.118;17.058;2023-04-25T00:58:26;1.33;;;0.90;;
23270;SDS011;11804;51.118;17.058;2023-04-25T01:00:54;2.37;;;1.13;;
23270;SDS011;11804;51.118;17.058;2023-04-25T01:03:24;1.23;;;0.87;;
23270;SDS011;11804;51.118;17.058;2023-04-25T01:05:53;3.17;;;1.30;;
23270;SDS011;11804;51.118;17.058;2023-04-25T01:08:23;1.57;;;1.00;;
23270;SDS011;11804;51.118;17.058;2023-04-25T01:10:51;1.43;;;0.90;;
23270;SDS011;11804;51.118;17.058;2023-04-25T01:13:20;7.97;;;2.23;;
23270;SDS011;11804;51.118;17.058;2023-04-25T01:15:48;12.77;;;3.77;;
23270;SDS011;11804;51.118;17.058;2023-04-25T01:18:16;9.43;;;3.07;;
23270;SDS011;11804;51.118;17.058;2023-04-25T01:20:44;3.00;;;1.20;;
23270;SDS011;11804;51.118;17.058;2023-04-25T01:23:13;3.07;;;1.33;;
23270;SDS011;11804;51.118;17.058;2023-04-25T01:25:41;2.67;;;1.23;;
23270;SDS011;11804;51.118;17.058;2023-04-25T01:28:09;2.33;;;1.50;;
23270;SDS011;11804;51.118;17.058;2023-04-25T01:30:38;1.23;;;1.13;;
23270;SDS011;11804;51.118;17.058;2023-04-25T01:33:08;1.50;;;1.17;;
23270;SDS011;11804;51.118;17.058;2023-04-25T01:35:36;2.43;;;1.50;;
23270;SDS011;11804;51.118;17.058;2023-04-25T01:38:04;1.70;;;1.20;;
23270;SDS011;11804;51.118;17.058;2023-04-25T01:40:32;3.83;;;1.50;;
23270;SDS011;11804;51.118;17.058;2023-04-25T01:43:00;3.43;;;1.80;;
23270;SDS011;11804;51.118;17.058;2023-04-25T01:45:28;2.73;;;1.40;;
23270;SDS011;11804;51.118;17.058;2023-04-25T01:47:56;3.27;;;1.70;;
23270;SDS011;11804;51.118;17.058;2023-04-25T01:50:25;2.63;;;1.23;;
23270;SDS011;11804;51.118;17.058;2023-04-25T01:52:52;3.13;;;1.43;;
23270;SDS011;11804;51.118;17.058;2023-04-25T01:55:20;1.67;;;1.43;;
23270;SDS011;11804;51.118;17.058;2023-04-25T01:57:48;2.13;;;1.50;;
23270;SDS011;11804;51.118;17.058;2023-04-25T02:00:16;1.60;;;1.50;;
23270;SDS011;11804;51.118;17.058;2023-04-25T02:02:46;1.90;;;1.40;;
23270;SDS011;11804;51.118;17.058;2023-04-25T02:05:16;2.67;;;1.60;;
23270;SDS011;11804;51.118;17.058;2023-04-25T02:07:44;2.90;;;1.70;;
23270;SDS011;11804;51.118;17.058;2023-04-25T02:10:11;1.87;;;1.40;;
23270;SDS011;11804;51.118;17.058;2023-04-25T02:12:39;3.67;;;1.93;;
23270;SDS011;11804;51.118;17.058;2023-04-25T02:15:07;2.43;;;1.90;;
23270;SDS011;11804;51.118;17.058;2023-04-25T02:17:35;2.70;;;1.80;;
23270;SDS011;11804;51.118;17.058;2023-04-25T02:20:03;2.50;;;1.70;;
23270;SDS011;11804;51.118;17.058;2023-04-25T02:22:32;3.17;;;1.90;;
23270;SDS011;11804;51.118;17.058;2023-04-25T02:25:01;3.20;;;1.87;;
23270;SDS011;11804;51.118;17.058;2023-04-25T02:27:30;2.83;;;2.00;;
23270;SDS011;11804;51.118;17.058;2023-04-25T02:29:58;3.07;;;1.70;;
23270;SDS011;11804;51.118;17.058;2023-04-25T02:32:25;4.53;;;1.83;;
23270;SDS011;11804;51.118;17.058;2023-04-25T02:34:53;3.37;;;1.70;;
23270;SDS011;11804;51.118;17.058;2023-04-25T02:37:21;3.50;;;1.90;;
23270;SDS011;11804;51.118;17.058;2023-04-25T02:39:48;2.40;;;1.57;;
23270;SDS011;11804;51.118;17.058;2023-04-25T02:42:16;3.20;;;2.03;;
23270;SDS011;11804;51.118;17.058;2023-04-25T02:44:44;3.40;;;2.30;;
23270;SDS011;11804;51.118;17.058;2023-04-25T02:47:11;3.30;;;1.97;;
23270;SDS011;11804;51.118;17.058;2023-04-25T02:49:39;3.90;;;2.20;;
23270;SDS011;11804;51.118;17.058;2023-04-25T02:52:07;3.03;;;1.97;;
23270;SDS011;11804;51.118;17.058;2023-04-25T02:54:34;5.53;;;2.40;;
23270;SDS011;11804;51.118;17.058;2023-04-25T02:57:02;3.20;;;2.20;;
23270;SDS011;11804;51.118;17.058;2023-04-25T02:59:30;4.93;;;2.40;;
23270;SDS011;11804;51.118;17.058;2023-04-25T03:01:57;4.03;;;2.50;;
23270;SDS011;11804;51.118;17.058;2023-04-25T03:04:25;3.87;;;2.13;;
23270;SDS011;11804;51.118;17.058;2023-04-25T03:06:52;3.60;;;2.17;;
23270;SDS011;11804;51.118;17.058;2023-04-25T03:09:20;4.07;;;2.43;;
23270;SDS011;11804;51.118;17.058;2023-04-25T03:11:48;3.80;;;2.23;;
23270;SDS011;11804;51.118;17.058;2023-04-25T03:14:16;4.10;;;2.37;;
23270;SDS011;11804;51.118;17.058;2023-04-25T03:16:43;8.10;;;2.50;;
23270;SDS011;11804;51.118;17.058;2023-04-25T03:19:11;3.43;;;2.10;;
23270;SDS011;11804;51.118;17.058;2023-04-25T03:21:41;4.87;;;2.73;;
23270;SDS011;11804;51.118;17.058;2023-04-25T03:24:09;4.67;;;2.60;;
23270;SDS011;11804;51.118;17.058;2023-04-25T03:26:37;7.10;;;2.73;;
23270;SDS011;11804;51.118;17.058;2023-04-25T03:29:05;3.37;;;2.30;;
23270;SDS011;11804;51.118;17.058;2023-04-25T03:31:32;4.53;;;2.53;;
23270;SDS011;11804;51.118;17.058;2023-04-25T03:34:00;4.77;;;2.67;;
23270;SDS011;11804;51.118;17.058;2023-04-25T03:36:28;5.10;;;2.70;;
23270;SDS011;11804;51.118;17.058;2023-04-25T03:38:55;4.90;;;2.70;;
23270;SDS011;11804;51.118;17.058;2023-04-25T03:41:23;5.00;;;2.63;;
23270;SDS011;11804;51.118;17.058;2023-04-25T03:43:51;4.10;;;2.60;;
23270;SDS011;11804;51.118;17.058;2023-04-25T03:46:18;3.97;;;2.90;;
23270;SDS011;11804;51.118;17.058;2023-04-25T03:48:46;6.43;;;3.10;;
23270;SDS011;11804;51.118;17.058;2023-04-25T03:51:14;6.40;;;3.33;;
23270;SDS011;11804;51.118;17.058;2023-04-25T03:53:41;8.00;;;3.27;;
23270;SDS011;11804;51.118;17.058;2023-04-25T03:56:09;6.40;;;3.23;;
23270;SDS011;11804;51.118;17.058;2023-04-25T03:58:37;4.40;;;2.77;;
23270;SDS011;11804;51.118;17.058;2023-04-25T04:01:04;6.63;;;3.50;;
23270;SDS011;11804;51.118;17.058;2023-04-25T04:03:33;4.97;;;3.33;;
23270;SDS011;11804;51.118;17.058;2023-04-25T04:06:05;7.67;;;3.33;;
23270;SDS011;11804;51.118;17.058;2023-04-25T04:08:34;7.33;;;3.77;;
23270;SDS011;11804;51.118;17.058;2023-04-25T04:11:01;7.17;;;3.70;;
23270;SDS011;11804;51.118;17.058;2023-04-25T04:13:29;5.37;;;3.30;;
23270;SDS011;11804;51.118;17.058;2023-04-25T04:15:57;7.43;;;3.63;;
23270;SDS011;11804;51.118;17.058;2023-04-25T04:18:24;6.70;;;3.00;;
23270;SDS011;11804;51.118;17.058;2023-04-25T04:20:52;7.00;;;3.90;;
23270;SDS011;11804;51.118;17.058;2023-04-25T04:23:20;7.93;;;3.07;;
23270;SDS011;11804;51.118;17.058;2023-04-25T04:25:48;7.13;;;3.67;;
23270;SDS011;11804;51.118;17.058;2023-04-25T04:28:16;7.40;;;4.00;;
23270;SDS011;11804;51.118;17.058;2023-04-25T04:30:44;6.93;;;4.00;;
23270;SDS011;11804;51.118;17.058;2023-04-25T04:33:17;8.23;;;3.40;;
23270;SDS011;11804;51.118;17.058;2023-04-25T04:35:41;7.30;;;3.87;;
23270;SDS011;11804;51.118;17.058;2023-04-25T04:38:09;6.30;;;3.73;;
23270;SDS011;11804;51.118;17.058;2023-04-25T04:40:37;4.63;;;3.43;;
23270;SDS011;11804;51.118;17.058;2023-04-25T04:43:05;6.10;;;3.30;;
23270;SDS011;11804;51.118;17.058;2023-04-25T04:45:34;6.37;;;4.17;;
23270;SDS011;11804;51.118;17.058;2023-04-25T04:48:05;6.37;;;3.77;;
23270;SDS011;11804;51.118;17.058;2023-04-25T04:50:33;8.70;;;3.73;;
23270;SDS011;11804;51.118;17.058;2023-04-25T04:53:01;7.13;;;3.13;;
23270;SDS011;11804;51.118;17.058;2023-04-25T04:55:31;8.10;;;3.83;;
23270;SDS011;11804;51.118;17.058;2023-04-25T04:57:58;7.20;;;3.60;;
23270;SDS011;11804;51.118;17.058;2023-04-25T05:00:26;6.33;;;3.73;;
23270;SDS011;11804;51.118;17.058;2023-04-25T05:02:55;6.83;;;3.43;;
23270;SDS011;11804;51.118;17.058;2023-04-25T05:05:23;4.70;;;2.87;;
23270;SDS011;11804;51.118;17.058;2023-04-25T05:07:51;9.60;;;3.43;;
23270;SDS011;11804;51.118;17.058;2023-04-25T05:10:19;8.03;;;3.57;;
23270;SDS011;11804;51.118;17.058;2023-04-25T05:12:46;4.70;;;3.00;;
23270;SDS011;11804;51.118;17.058;2023-04-25T05:15:14;8.50;;;3.97;;
23270;SDS011;11804;51.118;17.058;2023-04-25T05:17:42;7.50;;;3.60;;
23270;SDS011;11804;51.118;17.058;2023-04-25T05:20:11;7.07;;;3.50;;
23270;SDS011;11804;51.118;17.058;2023-04-25T05:22:39;5.30;;;3.17;;
23270;SDS011;11804;51.118;17.058;2023-04-25T05:25:08;4.83;;;3.40;;
23270;SDS011;11804;51.118;17.058;2023-04-25T05:27:36;5.93;;;3.70;;
23270;SDS011;11804;51.118;17.058;2023-04-25T05:30:04;6.30;;;3.23;;
23270;SDS011;11804;51.118;17.058;2023-04-25T05:32:32;5.93;;;3.40;;
23270;SDS011;11804;51.118;17.058;2023-04-25T05:35:00;7.07;;;3.13;;
23270;SDS011;11804;51.118;17.058;2023-04-25T05:37:28;7.13;;;3.70;;
23270;SDS011;11804;51.118;17.058;2023-04-25T05:39:56;6.53;;;4.13;;
23270;SDS011;11804;51.118;17.058;2023-04-25T05:42:24;7.27;;;3.63;;
23270;SDS011;11804;51.118;17.058;2023-04-25T05:44:52;8.40;;;3.50;;
23270;SDS011;11804;51.118;17.058;2023-04-25T05:47:19;4.23;;;2.83;;
23270;SDS011;11804;51.118;17.058;2023-04-25T05:49:48;10.37;;;3.80;;
23270;SDS011;11804;51.118;17.058;2023-04-25T05:52:16;5.80;;;3.20;;
23270;SDS011;11804;51.118;17.058;2023-04-25T05:54:44;11.90;;;4.03;;
23270;SDS011;11804;51.118;17.058;2023-04-25T05:57:24;4.93;;;3.00;;
23270;SDS011;11804;51.118;17.058;2023-04-25T05:59:53;5.63;;;3.40;;
23270;SDS011;11804;51.118;17.058;2023-04-25T06:02:21;4.87;;;3.50;;
23270;SDS011;11804;51.118;17.058;2023-04-25T06:04:49;5.73;;;3.07;;
23270;SDS011;11804;51.118;17.058;2023-04-25T06:07:17;6.70;;;3.40;;
23270;SDS011;11804;51.118;17.058;2023-04-25T06:09:47;6.33;;;3.00;;
23270;SDS011;11804;51.118;17.058;2023-04-25T06:12:17;4.77;;;2.80;;
23270;SDS011;11804;51.118;17.058;2023-04-25T06:14:50;4.97;;;3.27;;
23270;SDS011;11804;51.118;17.058;2023-04-25T06:17:17;6.00;;;3.20;;
23270;SDS011;11804;51.118;17.058;2023-04-25T06:19:45;4.93;;;2.83;;
23270;SDS011;11804;51.118;17.058;2023-04-25T06:22:13;5.50;;;2.83;;
23270;SDS011;11804;51.118;17.058;2023-04-25T06:24:42;3.43;;;2.90;;
23270;SDS011;11804;51.118;17.058;2023-04-25T06:27:11;6.80;;;3.20;;
23270;SDS011;11804;51.118;17.058;2023-04-25T06:29:39;8.17;;;3.17;;
23270;SDS011;11804;51.118;17.058;2023-04-25T06:32:06;5.90;;;3.20;;
23270;SDS011;11804;51.118;17.058;2023-04-25T06:34:34;4.77;;;2.90;;
23270;SDS011;11804;51.118;17.058;2023-04-25T06:37:02;3.97;;;2.30;;
23270;SDS011;11804;51.118;17.058;2023-04-25T06:39:31;4.13;;;2.37;;
23270;SDS011;11804;51.118;17.058;2023-04-25T06:41:58;6.03;;;2.30;;
23270;SDS011;11804;51.118;17.058;2023-04-25T06:44:26;2.90;;;2.20;;
23270;SDS011;11804;51.118;17.058;2023-04-25T06:46:55;4.27;;;2.30;;
23270;SDS011;11804;51.118;17.058;2023-04-25T06:49:22;4.97;;;2.77;;
23270;SDS011;11804;51.118;17.058;2023-04-25T06:51:50;2.40;;;1.97;;
23270;SDS011;11804;51.118;17.058;2023-04-25T06:54:19;4.00;;;2.67;;
23270;SDS011;11804;51.118;17.058;2023-04-25T06:56:47;4.17;;;2.00;;
23270;SDS011;11804;51.118;17.058;2023-04-25T06:59:14;3.30;;;2.37;;
23270;SDS011;11804;51.118;17.058;2023-04-25T07:01:42;5.37;;;2.27;;
23270;SDS011;11804;51.118;17.058;2023-04-25T07:04:09;3.80;;;2.47;;
23270;SDS011;11804;51.118;17.058;2023-04-25T07:06:37;5.27;;;2.60;;
23270;SDS011;11804;51.118;17.058;2023-04-25T07:09:06;2.83;;;1.87;;
23270;SDS011;11804;51.118;17.058;2023-04-25T07:11:34;2.77;;;1.90;;
23270;SDS011;11804;51.118;17.058;2023-04-25T07:14:02;2.60;;;2.10;;
23270;SDS011;11804;51.118;17.058;2023-04-25T07:16:31;1.85;;;1.55;;
23270;SDS011;11804;51.118;17.058;2023-04-25T07:18:58;2.83;;;1.55;;
23270;SDS011;11804;51.118;17.058;2023-04-25T07:21:26;2.67;;;1.80;;
23270;SDS011;11804;51.118;17.058;2023-04-25T07:23:53;3.40;;;1.47;;
23270;SDS011;11804;51.118;17.058;2023-04-25T07:26:21;3.08;;;1.52;;
23270;SDS011;11804;51.118;17.058;2023-04-25T07:28:48;3.70;;;1.80;;
23270;SDS011;11804;51.118;17.058;2023-04-25T07:31:17;2.45;;;1.67;;
23270;SDS011;11804;51.118;17.058;2023-04-25T07:33:45;1.57;;;1.30;;
23270;SDS011;11804;51.118;17.058;2023-04-25T07:36:12;2.55;;;1.65;;
23270;SDS011;11804;51.118;17.058;2023-04-25T07:38:41;2.08;;;1.05;;
23270;SDS011;11804;51.118;17.058;2023-04-25T07:41:08;1.10;;;0.98;;
23270;SDS011;11804;51.118;17.058;2023-04-25T07:43:38;1.95;;;1.07;;
23270;SDS011;11804;51.118;17.058;2023-04-25T07:46:05;1.55;;;1.35;;
23270;SDS011;11804;51.118;17.058;2023-04-25T07:48:33;2.22;;;1.60;;
23270;SDS011;11804;51.118;17.058;2023-04-25T07:51:00;3.10;;;1.73;;
23270;SDS011;11804;51.118;17.058;2023-04-25T07:53:30;3.12;;;1.80;;
23270;SDS011;11804;51.118;17.058;2023-04-25T07:55:59;3.77;;;1.90;;
23270;SDS011;11804;51.118;17.058;2023-04-25T07:58:26;3.73;;;2.27;;
23270;SDS011;11804;51.118;17.058;2023-04-25T08:00:54;3.00;;;2.30;;
23270;SDS011;11804;51.118;17.058;2023-04-25T08:03:21;3.75;;;2.17;;
23270;SDS011;11804;51.118;17.058;2023-04-25T08:05:49;5.47;;;2.70;;
23270;SDS011;11804;51.118;17.058;2023-04-25T08:08:17;3.90;;;2.40;;
23270;SDS011;11804;51.118;17.058;2023-04-25T08:10:44;5.22;;;2.70;;
23270;SDS011;11804;51.118;17.058;2023-04-25T08:13:13;4.40;;;2.30;;
23270;SDS011;11804;51.118;17.058;2023-04-25T08:15:41;4.17;;;2.87;;
23270;SDS011;11804;51.118;17.058;2023-04-25T08:18:09;6.53;;;2.77;;
23270;SDS011;11804;51.118;17.058;2023-04-25T08:20:36;3.23;;;2.50;;
23270;SDS011;11804;51.118;17.058;2023-04-25T08:23:04;5.87;;;2.90;;
23270;SDS011;11804;51.118;17.058;2023-04-25T08:25:31;4.40;;;3.13;;
23270;SDS011;11804;51.118;17.058;2023-04-25T08:27:59;5.80;;;3.20;;
23270;SDS011;11804;51.118;17.058;2023-04-25T08:30:29;5.20;;;2.83;;
23270;SDS011;11804;51.118;17.058;2023-04-25T08:32:56;8.77;;;3.23;;
23270;SDS011;11804;51.118;17.058;2023-04-25T08:35:24;6.87;;;2.87;;
23270;SDS011;11804;51.118;17.058;2023-04-25T08:37:52;5.97;;;2.77;;
23270;SDS011;11804;51.118;17.058;2023-04-25T08:40:19;4.53;;;3.03;;
23270;SDS011;11804;51.118;17.058;2023-04-25T08:42:53;4.30;;;3.03;;
23270;SDS011;11804;51.118;17.058;2023-04-25T08:45:23;4.00;;;2.80;;
23270;SDS011;11804;51.118;17.058;2023-04-25T08:47:52;5.77;;;3.27;;
23270;SDS011;11804;51.118;17.058;2023-04-25T08:50:22;5.47;;;3.27;;
23270;SDS011;11804;51.118;17.058;2023-04-25T08:52:53;4.87;;;3.03;;
23270;SDS011;11804;51.118;17.058;2023-04-25T08:55:22;4.63;;;3.07;;
23270;SDS011;11804;51.118;17.058;2023-04-25T08:57:50;5.33;;;3.23;;
23270;SDS011;11804;51.118;17.058;2023-04-25T09:00:20;5.37;;;3.10;;
23270;SDS011;11804;51.118;17.058;2023-04-25T09:02:49;5.57;;;2.93;;
23270;SDS011;11804;51.118;17.058;2023-04-25T09:05:17;3.70;;;2.47;;
23270;SDS011;11804;51.118;17.058;2023-04-25T09:07:45;4.67;;;2.90;;
23270;SDS011;11804;51.118;17.058;2023-04-25T09:10:13;5.37;;;3.10;;
23270;SDS011;11804;51.118;17.058;2023-04-25T09:12:41;4.92;;;2.83;;
23270;SDS011;11804;51.118;17.058;2023-04-25T09:15:09;4.87;;;3.22;;
23270;SDS011;11804;51.118;17.058;2023-04-25T09:17:41;6.05;;;3.52;;
23270;SDS011;11804;51.118;17.058;2023-04-25T09:20:12;4.37;;;3.40;;
23270;SDS011;11804;51.118;17.058;2023-04-25T09:22:40;4.50;;;3.42;;
23270;SDS011;11804;51.118;17.058;2023-04-25T09:25:09;3.42;;;2.83;;
23270;SDS011;11804;51.118;17.058;2023-04-25T09:27:48;4.37;;;3.08;;
23270;SDS011;11804;51.118;17.058;2023-04-25T09:30:28;5.28;;;3.20;;
23270;SDS011;11804;51.118;17.058;2023-04-25T09:33:06;4.97;;;3.00;;
23270;SDS011;11804;51.118;17.058;2023-04-25T09:35:37;5.17;;;2.92;;
23270;SDS011;11804;51.118;17.058;2023-04-25T09:38:09;4.87;;;3.35;;
23270;SDS011;11804;51.118;17.058;2023-04-25T09:40:43;4.17;;;3.13;;
23270;SDS011;11804;51.118;17.058;2023-04-25T09:43:22;4.50;;;3.07;;
23270;SDS011;11804;51.118;17.058;2023-04-25T09:45:51;4.60;;;3.37;;
23270;SDS011;11804;51.118;17.058;2023-04-25T09:48:23;6.40;;;3.80;;
23270;SDS011;11804;51.118;17.058;2023-04-25T09:51:11;5.13;;;3.77;;
23270;SDS011;11804;51.118;17.058;2023-04-25T09:53:46;4.60;;;3.50;;
23270;SDS011;11804;51.118;17.058;2023-04-25T09:56:12;5.60;;;3.83;;
23270;SDS011;11804;51.118;17.058;2023-04-25T09:58:40;5.23;;;3.30;;
23270;SDS011;11804;51.118;17.058;2023-04-25T10:01:09;4.27;;;3.10;;
23270;SDS011;11804;51.118;17.058;2023-04-25T10:03:39;4.50;;;3.13;;
23270;SDS011;11804;51.118;17.058;2023-04-25T10:06:29;5.13;;;3.30;;
23270;SDS011;11804;51.118;17.058;2023-04-25T10:08:41;4.50;;;3.10;;
23270;SDS011;11804;51.118;17.058;2023-04-25T10:11:10;5.07;;;3.00;;
23270;SDS011;11804;51.118;17.058;2023-04-25T10:13:39;4.90;;;3.37;;
23270;SDS011;11804;51.118;17.058;2023-04-25T10:16:08;6.23;;;3.40;;
23270;SDS011;11804;51.118;17.058;2023-04-25T10:18:36;4.83;;;3.23;;
23270;SDS011;11804;51.118;17.058;2023-04-25T10:21:04;4.00;;;3.17;;
23270;SDS011;11804;51.118;17.058;2023-04-25T10:23:33;4.40;;;2.80;;
23270;SDS011;11804;51.118;17.058;2023-04-25T10:26:03;3.87;;;3.27;;
23270;SDS011;11804;51.118;17.058;2023-04-25T10:28:54;4.23;;;2.90;;
23270;SDS011;11804;51.118;17.058;2023-04-25T10:31:20;3.50;;;3.13;;
23270;SDS011;11804;51.118;17.058;2023-04-25T10:33:48;3.60;;;2.97;;
23270;SDS011;11804;51.118;17.058;2023-04-25T10:36:19;4.33;;;2.70;;
23270;SDS011;11804;51.118;17.058;2023-04-25T10:38:49;3.67;;;2.53;;
23270;SDS011;11804;51.118;17.058;2023-04-25T10:41:18;4.90;;;2.57;;
23270;SDS011;11804;51.118;17.058;2023-04-25T10:43:47;3.57;;;2.30;;
23270;SDS011;11804;51.118;17.058;2023-04-25T10:46:17;3.00;;;2.20;;
23270;SDS011;11804;51.118;17.058;2023-04-25T10:48:57;3.80;;;2.40;;
23270;SDS011;11804;51.118;17.058;2023-04-25T10:51:27;3.50;;;2.93;;
23270;SDS011;11804;51.118;17.058;2023-04-25T10:53:57;3.67;;;2.37;;
23270;SDS011;11804;51.118;17.058;2023-04-25T10:56:32;2.77;;;2.30;;
23270;SDS011;11804;51.118;17.058;2023-04-25T11:01:46;6.30;;;2.50;;
23270;SDS011;11804;51.118;17.058;2023-04-25T11:04:21;4.08;;;2.65;;
23270;SDS011;11804;51.118;17.058;2023-04-25T11:09:34;2.98;;;2.08;;
23270;SDS011;11804;51.118;17.058;2023-04-25T11:12:07;2.60;;;1.80;;
23270;SDS011;11804;51.118;17.058;2023-04-25T11:14:37;3.22;;;2.25;;
23270;SDS011;11804;51.118;17.058;2023-04-25T11:17:05;3.08;;;2.20;;
23270;SDS011;11804;51.118;17.058;2023-04-25T11:19:33;3.03;;;1.87;;
23270;SDS011;11804;51.118;17.058;2023-04-25T11:22:01;2.33;;;2.13;;
23270;SDS011;11804;51.118;17.058;2023-04-25T11:24:30;5.73;;;2.87;;
23270;SDS011;11804;51.118;17.058;2023-04-25T11:27:00;2.87;;;1.90;;
23270;SDS011;11804;51.118;17.058;2023-04-25T11:29:30;4.07;;;2.50;;
23270;SDS011;11804;51.118;17.058;2023-04-25T11:31:58;2.70;;;1.80;;
23270;SDS011;11804;51.118;17.058;2023-04-25T11:34:28;1.80;;;1.53;;
23270;SDS011;11804;51.118;17.058;2023-04-25T11:36:57;2.30;;;1.30;;
23270;SDS011;11804;51.118;17.058;2023-04-25T11:39:26;2.23;;;1.40;;
23270;SDS011;11804;51.118;17.058;2023-04-25T11:41:54;2.93;;;1.20;;
23270;SDS011;11804;51.118;17.058;2023-04-25T11:46:57;1.60;;;0.93;;
23270;SDS011;11804;51.118;17.058;2023-04-25T11:49:25;1.60;;;1.10;;
23270;SDS011;11804;51.118;17.058;2023-04-25T11:51:55;1.40;;;1.30;;
23270;SDS011;11804;51.118;17.058;2023-04-25T11:54:23;2.43;;;1.30;;
23270;SDS011;11804;51.118;17.058;2023-04-25T11:56:52;1.83;;;1.30;;
23270;SDS011;11804;51.118;17.058;2023-04-25T11:59:23;1.70;;;0.90;;
23270;SDS011;11804;51.118;17.058;2023-04-25T12:01:52;2.23;;;0.90;;
23270;SDS011;11804;51.118;17.058;2023-04-25T12:04:20;1.57;;;1.30;;
23270;SDS011;11804;51.118;17.058;2023-04-25T12:06:50;1.57;;;1.13;;
23270;SDS011;11804;51.118;17.058;2023-04-25T12:09:31;2.20;;;1.00;;
23270;SDS011;11804;51.118;17.058;2023-04-25T12:11:58;1.60;;;1.00;;
23270;SDS011;11804;51.118;17.058;2023-04-25T12:14:32;2.00;;;1.10;;
23270;SDS011;11804;51.118;17.058;2023-04-25T12:17:01;2.10;;;1.20;;
23270;SDS011;11804;51.118;17.058;2023-04-25T12:19:33;2.03;;;1.33;;
23270;SDS011;11804;51.118;17.058;2023-04-25T12:22:02;1.43;;;0.90;;
23270;SDS011;11804;51.118;17.058;2023-04-25T12:24:32;1.10;;;0.90;;
23270;SDS011;11804;51.118;17.058;2023-04-25T12:27:01;1.40;;;0.83;;
23270;SDS011;11804;51.118;17.058;2023-04-25T12:29:31;2.50;;;1.43;;
23270;SDS011;11804;51.118;17.058;2023-04-25T12:32:00;2.05;;;1.12;;
23270;SDS011;11804;51.118;17.058;2023-04-25T12:34:28;2.83;;;0.87;;
23270;SDS011;11804;51.118;17.058;2023-04-25T12:36:57;0.93;;;0.83;;
23270;SDS011;11804;51.118;17.058;2023-04-25T12:39:25;1.60;;;1.43;;
23270;SDS011;11804;51.118;17.058;2023-04-25T12:41:53;0.90;;;0.90;;
23270;SDS011;11804;51.118;17.058;2023-04-25T12:44:21;1.97;;;1.20;;
23270;SDS011;11804;51.118;17.058;2023-04-25T12:46:49;2.00;;;1.10;;
23270;SDS011;11804;51.118;17.058;2023-04-25T12:49:16;2.23;;;1.37;;
23270;SDS011;11804;51.118;17.058;2023-04-25T12:51:44;2.43;;;1.40;;
23270;SDS011;11804;51.118;17.058;2023-04-25T12:54:12;2.00;;;1.13;;
23270;SDS011;11804;51.118;17.058;2023-04-25T12:56:40;2.87;;;1.35;;
23270;SDS011;11804;51.118;17.058;2023-04-25T12:59:08;3.87;;;1.80;;
23270;SDS011;11804;51.118;17.058;2023-04-25T13:01:36;2.43;;;1.40;;
23270;SDS011;11804;51.118;17.058;2023-04-25T13:04:04;1.80;;;1.30;;
23270;SDS011;11804;51.118;17.058;2023-04-25T13:06:31;2.03;;;1.60;;
23270;SDS011;11804;51.118;17.058;2023-04-25T13:08:59;1.60;;;1.20;;
23270;SDS011;11804;51.118;17.058;2023-04-25T13:11:27;3.73;;;1.30;;
23270;SDS011;11804;51.118;17.058;2023-04-25T13:13:55;1.70;;;1.40;;
23270;SDS011;11804;51.118;17.058;2023-04-25T13:16:23;1.43;;;1.20;;
23270;SDS011;11804;51.118;17.058;2023-04-25T13:18:51;2.37;;;1.70;;
23270;SDS011;11804;51.118;17.058;2023-04-25T13:21:18;2.73;;;1.60;;
23270;SDS011;11804;51.118;17.058;2023-04-25T13:23:46;1.87;;;1.40;;
23270;SDS011;11804;51.118;17.058;2023-04-25T13:26:13;1.90;;;1.50;;
23270;SDS011;11804;51.118;17.058;2023-04-25T13:28:41;2.40;;;1.70;;
23270;SDS011;11804;51.118;17.058;2023-04-25T13:31:09;1.50;;;1.20;;
23270;SDS011;11804;51.118;17.058;2023-04-25T13:33:37;2.03;;;1.50;;
23270;SDS011;11804;51.118;17.058;2023-04-25T13:36:04;5.20;;;1.70;;
23270;SDS011;11804;51.118;17.058;2023-04-25T13:38:32;1.97;;;1.30;;
23270;SDS011;11804;51.118;17.058;2023-04-25T13:40:59;3.00;;;1.03;;
23270;SDS011;11804;51.118;17.058;2023-04-25T13:43:27;1.30;;;1.20;;
23270;SDS011;11804;51.118;17.058;2023-04-25T13:45:54;2.23;;;1.40;;
23270;SDS011;11804;51.118;17.058;2023-04-25T13:48:23;1.97;;;1.40;;
23270;SDS011;11804;51.118;17.058;2023-04-25T13:50:51;1.73;;;1.27;;
23270;SDS011;11804;51.118;17.058;2023-04-25T13:53:19;1.93;;;1.10;;
23270;SDS011;11804;51.118;17.058;2023-04-25T13:55:46;2.90;;;1.47;;
23270;SDS011;11804;51.118;17.058;2023-04-25T13:58:14;1.50;;;1.37;;
23270;SDS011;11804;51.118;17.058;2023-04-25T14:00:42;2.17;;;1.70;;
23270;SDS011;11804;51.118;17.058;2023-04-25T14:03:11;3.43;;;1.30;;
23270;SDS011;11804;51.118;17.058;2023-04-25T14:05:38;3.33;;;1.63;;
23270;SDS011;11804;51.118;17.058;2023-04-25T14:08:07;2.60;;;1.50;;
23270;SDS011;11804;51.118;17.058;2023-04-25T14:10:35;2.07;;;1.33;;
23270;SDS011;11804;51.118;17.058;2023-04-25T14:13:04;3.07;;;1.30;;
23270;SDS011;11804;51.118;17.058;2023-04-25T14:15:32;2.50;;;1.53;;
23270;SDS011;11804;51.118;17.058;2023-04-25T14:18:01;2.27;;;1.50;;
23270;SDS011;11804;51.118;17.058;2023-04-25T14:20:29;2.17;;;1.60;;
23270;SDS011;11804;51.118;17.058;2023-04-25T14:22:57;1.47;;;1.10;;
23270;SDS011;11804;51.118;17.058;2023-04-25T14:25:25;1.43;;;1.30;;
23270;SDS011;11804;51.118;17.058;2023-04-25T14:27:53;2.07;;;0.90;;
23270;SDS011;11804;51.118;17.058;2023-04-25T14:30:20;3.13;;;1.50;;
23270;SDS011;11804;51.118;17.058;2023-04-25T14:32:49;1.73;;;1.10;;
23270;SDS011;11804;51.118;17.058;2023-04-25T14:35:16;1.53;;;1.07;;
23270;SDS011;11804;51.118;17.058;2023-04-25T14:37:44;0.90;;;0.90;;
23270;SDS011;11804;51.118;17.058;2023-04-25T14:40:12;1.57;;;0.90;;
23270;SDS011;11804;51.118;17.058;2023-04-25T14:42:42;1.43;;;1.00;;
23270;SDS011;11804;51.118;17.058;2023-04-25T14:45:09;2.93;;;1.20;;
23270;SDS011;11804;51.118;17.058;2023-04-25T14:47:40;2.50;;;1.47;;
23270;SDS011;11804;51.118;17.058;2023-04-25T14:50:09;1.53;;;1.30;;